Time;durP1;ratioP1;P1;durP2;ratioP2;P2;SDS_P1;SDS_P2;PMS_P1;PMS_P2;Temp;Humidity;BMP_temperature;BMP_pressure;BME280_temperature;BME280_humidity;BME280_pressure;Samples;Min_cycle;Max_cycle;Signal;HPM_P1;HPM_P2
2022/02/20 00:00:30;;;;;;;7.20;1.90;;;;;;;;;;5018835;28;20136;-62
2022/02/20 00:02:55;;;;;;;5.23;1.57;;;;;;;;;;5016012;28;20073;-65
2022/02/20 00:05:21;;;;;;;5.23;1.90;;;;;;;;;;5020921;28;20109;-65
2022/02/20 00:07:46;;;;;;;5.10;1.88;;;;;;;;;;5006657;28;20148;-65
2022/02/20 00:10:11;;;;;;;6.85;1.80;;;;;;;;;;5019982;28;20075;-65
2022/02/20 00:12:37;;;;;;;4.17;1.57;;;;;;;;;;5020274;28;20098;-65
2022/02/20 00:15:03;;;;;;;7.27;2.00;;;;;;;;;;5017760;28;20155;-65
2022/02/20 00:17:28;;;;;;;2.95;1.60;;;;;;;;;;4972450;28;20123;-65
2022/02/20 00:19:53;;;;;;;3.57;1.60;;;;;;;;;;4974044;28;20591;-65
2022/02/20 00:22:19;;;;;;;4.60;1.67;;;;;;;;;;4976470;28;20205;-66
2022/02/20 00:24:44;;;;;;;3.22;1.77;;;;;;;;;;5001269;28;20111;-65
2022/02/20 00:27:09;;;;;;;5.50;1.80;;;;;;;;;;5020832;28;20120;-65
2022/02/20 00:29:34;;;;;;;5.57;1.67;;;;;;;;;;5020812;28;20101;-65
2022/02/20 00:32:00;;;;;;;3.43;1.57;;;;;;;;;;5019861;28;20329;-63
2022/02/20 00:34:25;;;;;;;4.13;1.80;;;;;;;;;;5020940;28;20117;-62
2022/02/20 00:36:50;;;;;;;4.00;1.60;;;;;;;;;;5020331;28;20137;-62
2022/02/20 00:39:15;;;;;;;3.72;1.60;;;;;;;;;;5013449;28;20105;-62
2022/02/20 00:41:41;;;;;;;3.43;1.63;;;;;;;;;;5019974;28;20120;-63
2022/02/20 00:44:06;;;;;;;4.33;1.90;;;;;;;;;;5020331;28;20924;-63
2022/02/20 00:46:31;;;;;;;3.73;1.57;;;;;;;;;;5020506;28;20114;-62
2022/02/20 00:48:56;;;;;;;4.83;2.00;;;;;;;;;;5020392;28;20130;-62
2022/02/20 00:51:21;;;;;;;6.43;1.77;;;;;;;;;;5020549;28;20312;-64
2022/02/20 00:53:47;;;;;;;4.40;1.70;;;;;;;;;;5020434;28;20378;-64
2022/02/20 00:56:12;;;;;;;3.77;1.50;;;;;;;;;;5019948;28;20108;-64
2022/02/20 00:58:37;;;;;;;4.97;1.80;;;;;;;;;;5020678;28;20400;-64
2022/02/20 01:01:04;;;;;;;3.97;1.73;;;;;;;;;;5013822;28;20098;-64
2022/02/20 01:03:29;;;;;;;7.97;2.10;;;;;;;;;;5007617;28;20120;-64
2022/02/20 01:05:54;;;;;;;6.78;1.98;;;;;;;;;;5020327;28;20141;-64
2022/02/20 01:08:20;;;;;;;5.65;2.10;;;;;;;;;;5007088;28;20661;-64
2022/02/20 01:10:45;;;;;;;4.23;2.00;;;;;;;;;;5019912;28;20318;-65
2022/02/20 01:13:10;;;;;;;4.70;1.93;;;;;;;;;;5019991;28;20129;-64
2022/02/20 01:15:35;;;;;;;3.83;1.70;;;;;;;;;;5013041;28;20085;-63
2022/02/20 01:18:00;;;;;;;3.97;1.63;;;;;;;;;;4968063;28;20344;-63
2022/02/20 01:20:26;;;;;;;7.30;1.57;;;;;;;;;;4968257;28;20190;-64
2022/02/20 01:22:51;;;;;;;5.27;1.60;;;;;;;;;;4980321;28;20087;-64
2022/02/20 01:25:17;;;;;;;5.22;1.77;;;;;;;;;;5007281;28;20183;-64
2022/02/20 01:27:42;;;;;;;4.17;1.67;;;;;;;;;;5019598;28;20463;-64
2022/02/20 01:30:07;;;;;;;4.17;1.67;;;;;;;;;;5019998;28;20320;-64
2022/02/20 01:32:33;;;;;;;4.75;1.80;;;;;;;;;;5019731;28;20105;-64
2022/02/20 01:34:58;;;;;;;4.00;1.80;;;;;;;;;;5020205;28;20157;-65
2022/02/20 01:37:23;;;;;;;9.53;2.00;;;;;;;;;;5019441;28;20200;-65
2022/02/20 01:39:48;;;;;;;3.13;1.40;;;;;;;;;;5011797;28;20313;-65
2022/02/20 01:42:13;;;;;;;6.20;1.37;;;;;;;;;;5019545;28;20638;-65
2022/02/20 01:44:39;;;;;;;3.20;1.50;;;;;;;;;;5021208;28;20102;-65
2022/02/20 01:47:05;;;;;;;7.03;1.70;;;;;;;;;;5023493;28;20121;-65
2022/02/20 01:49:30;;;;;;;7.18;2.10;;;;;;;;;;5023648;28;20637;-65
2022/02/20 01:51:55;;;;;;;5.30;1.80;;;;;;;;;;5023400;28;20102;-65
2022/02/20 01:54:20;;;;;;;6.93;1.67;;;;;;;;;;5023870;28;20105;-65
2022/02/20 01:56:45;;;;;;;7.67;2.00;;;;;;;;;;5021644;28;20109;-65
2022/02/20 01:59:11;;;;;;;8.53;2.40;;;;;;;;;;5023378;28;20339;-65
2022/02/20 02:01:36;;;;;;;8.10;1.77;;;;;;;;;;5015503;28;20106;-65
2022/02/20 02:04:02;;;;;;;8.68;1.83;;;;;;;;;;5023815;28;20094;-65
2022/02/20 02:06:28;;;;;;;9.10;2.17;;;;;;;;;;5018162;28;20177;-65
2022/02/20 02:08:54;;;;;;;7.63;2.05;;;;;;;;;;5014924;28;20571;-65
2022/02/20 02:11:19;;;;;;;6.60;2.10;;;;;;;;;;5022745;28;20119;-65
2022/02/20 02:13:44;;;;;;;6.10;1.73;;;;;;;;;;5020951;28;20333;-65
2022/02/20 02:16:09;;;;;;;6.90;1.47;;;;;;;;;;5006662;28;20416;-65
2022/02/20 02:18:36;;;;;;;6.47;1.80;;;;;;;;;;4974106;28;20528;-65
2022/02/20 02:21:01;;;;;;;6.80;1.92;;;;;;;;;;4976835;28;20619;-65
2022/02/20 02:23:27;;;;;;;2.97;1.40;;;;;;;;;;4975192;28;20174;-65
2022/02/20 02:25:54;;;;;;;5.30;1.70;;;;;;;;;;4970529;28;20475;-65
2022/02/20 02:28:20;;;;;;;4.30;1.45;;;;;;;;;;4972854;28;20674;-65
2022/02/20 02:30:45;;;;;;;4.90;1.75;;;;;;;;;;4977621;28;20386;-65
2022/02/20 02:33:11;;;;;;;7.45;2.13;;;;;;;;;;4974102;28;20178;-65
2022/02/20 02:35:36;;;;;;;5.87;2.00;;;;;;;;;;4970876;28;20078;-65
2022/02/20 02:38:01;;;;;;;7.10;2.00;;;;;;;;;;4977701;28;20374;-65
2022/02/20 02:40:26;;;;;;;6.07;1.58;;;;;;;;;;4980107;28;20508;-65
2022/02/20 02:42:52;;;;;;;7.43;1.93;;;;;;;;;;4973716;28;20305;-65
2022/02/20 02:45:17;;;;;;;7.57;1.95;;;;;;;;;;4983616;28;20237;-65
2022/02/20 02:47:45;;;;;;;5.97;1.60;;;;;;;;;;4993477;28;20098;-65
2022/02/20 02:50:11;;;;;;;6.45;1.85;;;;;;;;;;4997051;28;20082;-65
2022/02/20 02:52:36;;;;;;;11.77;3.00;;;;;;;;;;4992794;28;20106;-66
2022/02/20 02:55:01;;;;;;;7.87;3.10;;;;;;;;;;4989526;28;20110;-63
2022/02/20 02:57:26;;;;;;;12.97;3.70;;;;;;;;;;4993595;28;20107;-62
2022/02/20 02:59:51;;;;;;;12.23;4.53;;;;;;;;;;4996583;28;20555;-63
2022/02/20 03:02:17;;;;;;;13.40;3.33;;;;;;;;;;4990949;28;20075;-63
2022/02/20 03:04:42;;;;;;;14.33;3.83;;;;;;;;;;4996386;28;20106;-62
2022/02/20 03:07:09;;;;;;;10.50;2.90;;;;;;;;;;4992480;28;20090;-63
2022/02/20 03:09:35;;;;;;;10.45;3.40;;;;;;;;;;4992834;28;20598;-64
2022/02/20 03:12:01;;;;;;;13.90;3.58;;;;;;;;;;5004462;28;20439;-64
2022/02/20 03:14:26;;;;;;;11.83;3.50;;;;;;;;;;5000112;28;20074;-63
2022/02/20 03:16:52;;;;;;;10.32;3.22;;;;;;;;;;4997316;28;20341;-64
2022/02/20 03:19:18;;;;;;;13.15;3.55;;;;;;;;;;4996542;28;20815;-64
2022/02/20 03:21:43;;;;;;;10.47;3.83;;;;;;;;;;4994507;28;20121;-63
2022/02/20 03:24:08;;;;;;;12.57;3.43;;;;;;;;;;4998399;28;20521;-63
2022/02/20 03:26:33;;;;;;;16.57;3.77;;;;;;;;;;4993096;28;20420;-64
2022/02/20 03:28:59;;;;;;;12.37;3.97;;;;;;;;;;5001398;28;20094;-64
2022/02/20 03:31:24;;;;;;;7.95;3.10;;;;;;;;;;4991298;28;20070;-62
2022/02/20 03:33:50;;;;;;;12.73;3.70;;;;;;;;;;4988832;28;20326;-62
2022/02/20 03:36:15;;;;;;;11.47;2.93;;;;;;;;;;5002266;28;20607;-64
2022/02/20 03:38:41;;;;;;;8.33;2.73;;;;;;;;;;4997442;28;20074;-63
2022/02/20 03:41:06;;;;;;;13.88;3.63;;;;;;;;;;5001409;28;20114;-64
2022/02/20 03:43:31;;;;;;;9.60;3.20;;;;;;;;;;4990661;28;20075;-64
2022/02/20 03:45:56;;;;;;;9.57;2.53;;;;;;;;;;4999613;28;20411;-64
2022/02/20 03:48:22;;;;;;;12.80;3.13;;;;;;;;;;4992271;28;20107;-64
2022/02/20 03:50:48;;;;;;;16.27;4.13;;;;;;;;;;4994813;28;20122;-64
2022/02/20 03:53:13;;;;;;;12.75;3.42;;;;;;;;;;4990625;28;20103;-64
2022/02/20 03:55:38;;;;;;;7.43;2.30;;;;;;;;;;4999552;28;20104;-64
2022/02/20 03:58:04;;;;;;;18.50;3.63;;;;;;;;;;4995139;28;20197;-64
2022/02/20 04:00:30;;;;;;;14.37;4.13;;;;;;;;;;5005697;28;20368;-64
2022/02/20 04:02:55;;;;;;;15.80;3.80;;;;;;;;;;5000721;28;20132;-64
2022/02/20 04:05:20;;;;;;;12.77;3.20;;;;;;;;;;4991193;28;20118;-64
2022/02/20 04:07:46;;;;;;;12.47;3.40;;;;;;;;;;4999579;28;20090;-64
2022/02/20 04:10:11;;;;;;;15.73;3.50;;;;;;;;;;4988515;28;20199;-64
2022/02/20 04:12:36;;;;;;;10.75;3.10;;;;;;;;;;4999483;28;20099;-64
2022/02/20 04:15:02;;;;;;;11.45;2.95;;;;;;;;;;5001667;28;20168;-64
2022/02/20 04:17:27;;;;;;;8.55;3.15;;;;;;;;;;5003354;28;20570;-65
2022/02/20 04:19:52;;;;;;;10.83;3.20;;;;;;;;;;4997383;28;20079;-65
2022/02/20 04:22:18;;;;;;;12.45;2.72;;;;;;;;;;4997650;28;20468;-64
2022/02/20 04:24:43;;;;;;;15.27;3.28;;;;;;;;;;4999872;28;20118;-64
2022/02/20 04:27:08;;;;;;;9.77;2.83;;;;;;;;;;4988179;28;20098;-64
2022/02/20 04:29:34;;;;;;;7.57;2.63;;;;;;;;;;5001002;28;20102;-64
2022/02/20 04:31:59;;;;;;;9.70;2.90;;;;;;;;;;4987583;28;20564;-64
2022/02/20 04:34:24;;;;;;;11.43;3.22;;;;;;;;;;4981542;28;20309;-64
2022/02/20 04:36:49;;;;;;;10.53;3.03;;;;;;;;;;4994901;28;20098;-64
2022/02/20 04:39:15;;;;;;;11.40;3.10;;;;;;;;;;5000652;28;20447;-64
2022/02/20 04:41:40;;;;;;;12.33;2.83;;;;;;;;;;4988084;28;20342;-65
2022/02/20 04:44:05;;;;;;;11.75;3.45;;;;;;;;;;5000571;28;20130;-62
2022/02/20 04:46:34;;;;;;;21.13;3.80;;;;;;;;;;5000762;28;20101;-64
2022/02/20 04:48:59;;;;;;;11.55;3.38;;;;;;;;;;5003399;28;20152;-64
2022/02/20 04:51:24;;;;;;;9.68;3.22;;;;;;;;;;5000795;28;20074;-64
2022/02/20 04:53:49;;;;;;;11.97;3.30;;;;;;;;;;5004542;28;20847;-64
2022/02/20 04:56:15;;;;;;;11.30;3.10;;;;;;;;;;4999986;28;20591;-64
2022/02/20 04:58:40;;;;;;;16.40;3.70;;;;;;;;;;4987487;28;20075;-64
2022/02/20 05:01:05;;;;;;;12.93;3.07;;;;;;;;;;5000411;28;20102;-64
2022/02/20 05:03:30;;;;;;;10.53;2.67;;;;;;;;;;4995336;28;20083;-64
2022/02/20 05:05:56;;;;;;;7.50;2.53;;;;;;;;;;5009476;28;20102;-64
2022/02/20 05:08:21;;;;;;;11.40;3.63;;;;;;;;;;4999770;28;20722;-64
2022/02/20 05:10:46;;;;;;;8.00;2.65;;;;;;;;;;5007240;28;20967;-64
2022/02/20 05:13:12;;;;;;;8.50;2.90;;;;;;;;;;4990866;28;20197;-64
2022/02/20 05:15:37;;;;;;;6.33;2.60;;;;;;;;;;5005965;28;20224;-64
2022/02/20 05:18:02;;;;;;;5.33;2.57;;;;;;;;;;4989727;28;20182;-64
2022/02/20 05:20:27;;;;;;;11.97;2.83;;;;;;;;;;5000877;28;20102;-65
2022/02/20 05:22:52;;;;;;;9.97;2.77;;;;;;;;;;4998058;28;20118;-65
2022/02/20 05:25:18;;;;;;;6.80;2.43;;;;;;;;;;4997595;28;20122;-64
2022/02/20 05:27:43;;;;;;;9.03;2.27;;;;;;;;;;4998157;28;20106;-65
2022/02/20 05:30:09;;;;;;;12.45;3.05;;;;;;;;;;4997423;28;20873;-65
2022/02/20 05:32:34;;;;;;;9.35;2.65;;;;;;;;;;4999865;28;20588;-65
2022/02/20 05:34:59;;;;;;;9.23;2.67;;;;;;;;;;5003835;28;20085;-65
2022/02/20 05:37:24;;;;;;;8.63;2.10;;;;;;;;;;4993916;28;20816;-65
2022/02/20 05:39:50;;;;;;;14.27;3.60;;;;;;;;;;5004373;28;20078;-65
2022/02/20 05:42:15;;;;;;;14.07;3.05;;;;;;;;;;5005733;28;20074;-66
2022/02/20 05:44:40;;;;;;;7.40;2.57;;;;;;;;;;5004831;28;20129;-65
2022/02/20 05:47:06;;;;;;;8.27;2.27;;;;;;;;;;4998484;28;20498;-65
2022/02/20 05:49:31;;;;;;;7.28;2.50;;;;;;;;;;5004028;28;20341;-65
2022/02/20 05:51:56;;;;;;;7.70;2.33;;;;;;;;;;4990821;28;20103;-65
2022/02/20 05:54:21;;;;;;;8.97;2.83;;;;;;;;;;5004387;28;20531;-65
2022/02/20 05:56:46;;;;;;;9.03;2.90;;;;;;;;;;4991615;28;20117;-65
2022/02/20 05:59:12;;;;;;;8.93;2.40;;;;;;;;;;5003193;28;20602;-65
2022/02/20 06:01:37;;;;;;;9.32;2.38;;;;;;;;;;4993152;28;20346;-65
2022/02/20 06:04:03;;;;;;;6.13;1.88;;;;;;;;;;5000749;28;20456;-65
2022/02/20 06:06:32;;;;;;;9.55;2.70;;;;;;;;;;4999890;28;20083;-65
2022/02/20 06:08:57;;;;;;;9.38;2.17;;;;;;;;;;5002534;28;20090;-65
2022/02/20 06:11:23;;;;;;;8.50;2.25;;;;;;;;;;5002878;28;20098;-65
2022/02/20 06:13:48;;;;;;;6.23;1.90;;;;;;;;;;5003428;28;20173;-65
2022/02/20 06:16:13;;;;;;;5.97;2.17;;;;;;;;;;4986054;28;20578;-65
2022/02/20 06:18:38;;;;;;;13.23;2.73;;;;;;;;;;5006100;28;20158;-65
2022/02/20 06:21:03;;;;;;;12.13;2.83;;;;;;;;;;4991699;28;20578;-65
2022/02/20 06:23:32;;;;;;;6.87;2.07;;;;;;;;;;5002187;28;20149;-65
2022/02/20 06:25:58;;;;;;;8.75;2.50;;;;;;;;;;5000214;28;20122;-65
2022/02/20 06:28:24;;;;;;;9.80;2.30;;;;;;;;;;4991505;28;20122;-65
2022/02/20 06:30:49;;;;;;;13.18;3.17;;;;;;;;;;5001647;28;20074;-65
2022/02/20 06:33:14;;;;;;;11.67;2.70;;;;;;;;;;4991108;28;20110;-65
2022/02/20 06:35:39;;;;;;;10.17;2.53;;;;;;;;;;5003037;28;20127;-65
2022/02/20 06:38:05;;;;;;;7.00;1.83;;;;;;;;;;4993154;28;20066;-66
2022/02/20 06:40:31;;;;;;;9.25;2.05;;;;;;;;;;5011309;28;20105;-65
2022/02/20 06:42:56;;;;;;;7.03;1.90;;;;;;;;;;5001606;28;20082;-65
2022/02/20 06:45:21;;;;;;;8.90;2.40;;;;;;;;;;5006411;28;20345;-65
2022/02/20 06:47:46;;;;;;;7.83;2.00;;;;;;;;;;4999623;28;20679;-65
2022/02/20 06:50:12;;;;;;;9.80;2.90;;;;;;;;;;5010283;28;20726;-65
2022/02/20 06:52:37;;;;;;;9.53;2.60;;;;;;;;;;5002730;28;20334;-65
2022/02/20 06:55:02;;;;;;;11.93;2.47;;;;;;;;;;5002671;28;20423;-65
2022/02/20 06:57:27;;;;;;;8.57;2.47;;;;;;;;;;4992264;28;20140;-65
2022/02/20 06:59:52;;;;;;;12.40;2.60;;;;;;;;;;5009872;28;20722;-65
2022/02/20 07:02:18;;;;;;;7.57;2.17;;;;;;;;;;5002980;28;20086;-66
2022/02/20 07:04:43;;;;;;;8.80;2.47;;;;;;;;;;5002516;28;20554;-65
2022/02/20 07:07:08;;;;;;;8.03;2.23;;;;;;;;;;5005368;28;20566;-65
2022/02/20 07:09:33;;;;;;;10.43;2.43;;;;;;;;;;4997822;28;20106;-65
2022/02/20 07:11:58;;;;;;;9.37;2.40;;;;;;;;;;5005819;28;20397;-65
2022/02/20 07:14:24;;;;;;;7.57;2.20;;;;;;;;;;4991593;28;20070;-65
2022/02/20 07:16:49;;;;;;;8.90;2.00;;;;;;;;;;4983569;28;20117;-65
2022/02/20 07:19:14;;;;;;;6.07;1.90;;;;;;;;;;4991724;28;20082;-65
2022/02/20 07:21:39;;;;;;;10.37;2.40;;;;;;;;;;4987061;28;20491;-65
2022/02/20 07:24:05;;;;;;;5.50;1.70;;;;;;;;;;4993323;28;20113;-65
2022/02/20 07:26:32;;;;;;;10.43;2.33;;;;;;;;;;4989285;28;20145;-65
2022/02/20 07:28:57;;;;;;;12.30;2.28;;;;;;;;;;4990977;28;20471;-65
2022/02/20 07:31:23;;;;;;;8.83;2.37;;;;;;;;;;4986596;28;20078;-65
2022/02/20 07:33:52;;;;;;;6.63;2.15;;;;;;;;;;4990835;28;20098;-65
2022/02/20 07:36:17;;;;;;;;;;;;;;;;;;4989005;28;20099;-65
2022/02/20 07:38:42;;;;;;;8.67;1.90;;;;;;;;;;4993077;28;20108;-65
2022/02/20 07:41:08;;;;;;;6.83;2.43;;;;;;;;;;4989008;28;20106;-65
2022/02/20 07:43:33;;;;;;;4.43;1.77;;;;;;;;;;4990902;28;20139;-65
2022/02/20 07:45:58;;;;;;;6.03;2.77;;;;;;;;;;4986220;28;20581;-65
2022/02/20 07:48:23;;;;;;;4.43;1.73;;;;;;;;;;4983584;28;20122;-65
2022/02/20 07:50:48;;;;;;;8.23;2.17;;;;;;;;;;4989566;28;20075;-65
2022/02/20 07:53:14;;;;;;;4.37;1.67;;;;;;;;;;4990933;28;20121;-65
2022/02/20 07:55:39;;;;;;;7.47;2.40;;;;;;;;;;4985445;28;20440;-65
2022/02/20 07:58:05;;;;;;;5.77;1.97;;;;;;;;;;4984320;28;20580;-65
2022/02/20 08:00:30;;;;;;;3.63;1.65;;;;;;;;;;4991160;28;20353;-64
2022/02/20 08:02:59;;;;;;;6.78;1.98;;;;;;;;;;4992034;28;20581;-65
2022/02/20 08:05:24;;;;;;;2.33;1.70;;;;;;;;;;4981120;28;20105;-65
2022/02/20 08:07:49;;;;;;;5.73;2.20;;;;;;;;;;5003842;28;20095;-65
2022/02/20 08:10:14;;;;;;;4.70;2.10;;;;;;;;;;4993723;28;20078;-65
2022/02/20 08:12:40;;;;;;;4.43;1.70;;;;;;;;;;4984308;28;20111;-65
2022/02/20 08:15:05;;;;;;;6.23;2.10;;;;;;;;;;4997573;28;20422;-65
2022/02/20 08:17:30;;;;;;;2.83;1.65;;;;;;;;;;4996265;28;20741;-65
2022/02/20 08:19:56;;;;;;;4.27;1.70;;;;;;;;;;4998011;28;20130;-65
2022/02/20 08:22:21;;;;;;;3.50;2.17;;;;;;;;;;4989982;28;20862;-65
2022/02/20 08:24:46;;;;;;;6.35;2.28;;;;;;;;;;4990397;28;20177;-65
2022/02/20 08:27:12;;;;;;;4.82;1.70;;;;;;;;;;4988112;28;20136;-65
2022/02/20 08:29:37;;;;;;;3.70;1.80;;;;;;;;;;4997974;28;20098;-65
2022/02/20 08:32:03;;;;;;;6.50;2.00;;;;;;;;;;5008138;28;20103;-65
2022/02/20 08:34:29;;;;;;;5.88;1.83;;;;;;;;;;5000061;28;20329;-65
2022/02/20 08:36:54;;;;;;;5.97;1.75;;;;;;;;;;4983083;28;20113;-65
2022/02/20 08:39:19;;;;;;;4.03;1.97;;;;;;;;;;4993300;28;20082;-65
2022/02/20 08:41:44;;;;;;;3.73;1.50;;;;;;;;;;4996480;28;20117;-65
2022/02/20 08:44:10;;;;;;;3.33;1.50;;;;;;;;;;4996976;28;20219;-65
2022/02/20 08:46:35;;;;;;;3.20;1.43;;;;;;;;;;4996939;28;20533;-65
2022/02/20 08:49:00;;;;;;;4.27;1.90;;;;;;;;;;4995945;28;20348;-65
2022/02/20 08:51:25;;;;;;;4.53;1.65;;;;;;;;;;4996842;28;20513;-64
2022/02/20 08:53:51;;;;;;;7.57;2.10;;;;;;;;;;4997232;28;20094;-63
2022/02/20 08:56:16;;;;;;;3.70;1.53;;;;;;;;;;4996356;28;20603;-63
2022/02/20 08:58:41;;;;;;;3.10;1.53;;;;;;;;;;4996341;28;20519;-66
2022/02/20 09:01:06;;;;;;;4.97;1.60;;;;;;;;;;4994041;28;20590;-64
2022/02/20 09:03:32;;;;;;;5.07;1.73;;;;;;;;;;4996338;28;20077;-63
2022/02/20 09:05:57;;;;;;;2.80;1.13;;;;;;;;;;4995610;28;20340;-65
2022/02/20 09:08:22;;;;;;;3.20;1.40;;;;;;;;;;4995160;28;20106;-63
2022/02/20 09:10:48;;;;;;;4.07;1.17;;;;;;;;;;4996597;28;20078;-65
2022/02/20 09:13:13;;;;;;;4.25;1.50;;;;;;;;;;4990067;28;20562;-65
2022/02/20 09:15:39;;;;;;;5.45;1.70;;;;;;;;;;4995812;28;20495;-65
2022/02/20 09:18:04;;;;;;;1.93;1.30;;;;;;;;;;4982370;28;20074;-65
2022/02/20 09:20:29;;;;;;;1.20;1.10;;;;;;;;;;4988594;28;20369;-65
2022/02/20 09:22:55;;;;;;;4.32;1.40;;;;;;;;;;4988432;28;20502;-65
2022/02/20 09:25:20;;;;;;;4.93;1.57;;;;;;;;;;4996785;28;20102;-65
2022/02/20 09:27:45;;;;;;;2.85;1.17;;;;;;;;;;4993902;28;20439;-65
2022/02/20 09:30:11;;;;;;;3.07;1.07;;;;;;;;;;4993314;28;20067;-65
2022/02/20 09:32:36;;;;;;;1.98;0.90;;;;;;;;;;4989005;28;20110;-66
2022/02/20 09:35:02;;;;;;;2.47;1.10;;;;;;;;;;4985745;28;20067;-66
2022/02/20 09:37:28;;;;;;;2.80;1.17;;;;;;;;;;4989216;28;20118;-66
2022/02/20 09:39:53;;;;;;;3.08;1.20;;;;;;;;;;4995502;28;20188;-66
2022/02/20 09:42:18;;;;;;;1.90;1.20;;;;;;;;;;4985768;28;20128;-63
2022/02/20 09:44:44;;;;;;;2.73;1.10;;;;;;;;;;4999779;28;20122;-61
2022/02/20 09:47:10;;;;;;;1.10;1.00;;;;;;;;;;4993207;28;20704;-62
2022/02/20 09:49:35;;;;;;;1.05;0.95;;;;;;;;;;4993921;28;20564;-66
2022/02/20 09:52:00;;;;;;;4.93;1.57;;;;;;;;;;4988218;28;20107;-66
2022/02/20 09:54:26;;;;;;;2.13;1.20;;;;;;;;;;4988280;28;20070;-66
2022/02/20 09:56:52;;;;;;;2.47;1.40;;;;;;;;;;4999158;28;20344;-65
2022/02/20 09:59:17;;;;;;;1.70;1.00;;;;;;;;;;4996547;28;20066;-66
2022/02/20 10:02:03;;;;;;;9.17;1.63;;;;;;;;;;4981648;28;20106;-63
2022/02/20 10:04:38;;;;;;;1.52;1.15;;;;;;;;;;4996217;28;20105;-61
2022/02/20 10:07:03;;;;;;;2.15;1.17;;;;;;;;;;5007490;28;20224;-63
2022/02/20 10:09:28;;;;;;;2.05;1.10;;;;;;;;;;4995135;28;20190;-65
2022/02/20 10:11:55;;;;;;;1.47;1.07;;;;;;;;;;4989557;28;20522;-65
2022/02/20 10:14:21;;;;;;;3.15;1.40;;;;;;;;;;5002777;28;20338;-65
2022/02/20 10:16:46;;;;;;;1.95;1.05;;;;;;;;;;4999184;28;20102;-65
2022/02/20 10:19:12;;;;;;;6.50;3.45;;;;;;;;;;5006091;28;20536;-63
2022/02/20 10:21:37;;;;;;;1.00;0.88;;;;;;;;;;4995194;28;20121;-65
2022/02/20 10:24:06;;;;;;;3.40;0.93;;;;;;;;;;5002036;28;20560;-65
2022/02/20 10:26:35;;;;;;;3.45;1.35;;;;;;;;;;5000158;28;20085;-65
2022/02/20 10:29:01;;;;;;;1.00;0.60;;;;;;;;;;5001820;28;20313;-65
2022/02/20 10:31:45;;;;;;;2.42;1.10;;;;;;;;;;4998519;28;20494;-65
2022/02/20 10:34:17;;;;;;;4.03;1.38;;;;;;;;;;4992373;28;20105;-65
2022/02/20 10:36:46;;;;;;;1.75;0.90;;;;;;;;;;4994607;28;20113;-65
2022/02/20 10:39:18;;;;;;;3.00;1.00;;;;;;;;;;4998139;28;20177;-65
2022/02/20 10:41:43;;;;;;;1.55;0.82;;;;;;;;;;4998044;28;20650;-65
2022/02/20 10:44:08;;;;;;;2.05;0.95;;;;;;;;;;4997623;28;20106;-65
2022/02/20 10:46:34;;;;;;;1.77;0.90;;;;;;;;;;5003292;28;20140;-63
2022/02/20 10:49:01;;;;;;;1.33;0.87;;;;;;;;;;4994536;28;20138;-63
2022/02/20 10:51:26;;;;;;;3.13;0.80;;;;;;;;;;4988951;28;20399;-64
2022/02/20 10:53:51;;;;;;;2.07;1.07;;;;;;;;;;4990434;28;20095;-64
2022/02/20 10:56:17;;;;;;;3.23;1.30;;;;;;;;;;4997467;28;20118;-64
2022/02/20 10:58:43;;;;;;;0.85;0.75;;;;;;;;;;4997440;28;20082;-65
2022/02/20 11:01:18;;;;;;;1.58;0.98;;;;;;;;;;4988198;28;20099;-64
2022/02/20 11:03:43;;;;;;;2.10;0.75;;;;;;;;;;4992653;28;20074;-64
2022/02/20 11:06:08;;;;;;;2.23;1.20;;;;;;;;;;4998405;28;20563;-65
2022/02/20 11:08:33;;;;;;;2.60;1.20;;;;;;;;;;4991793;28;20134;-64
2022/02/20 11:11:36;;;;;;;1.33;0.90;;;;;;;;;;4989021;28;20097;-66
2022/02/20 11:13:44;;;;;;;2.35;1.17;;;;;;;;;;5000249;28;20359;-65
2022/02/20 11:16:09;;;;;;;5.17;1.10;;;;;;;;;;4984744;28;20481;-64
2022/02/20 11:18:34;;;;;;;3.47;1.00;;;;;;;;;;4981515;28;20079;-64
2022/02/20 11:20:59;;;;;;;3.87;1.20;;;;;;;;;;4989427;28;20642;-64
2022/02/20 11:23:25;;;;;;;2.50;1.13;;;;;;;;;;4988768;28;20078;-64
2022/02/20 11:25:51;;;;;;;1.75;0.82;;;;;;;;;;4987407;28;20149;-64
2022/02/20 11:28:16;;;;;;;2.72;1.00;;;;;;;;;;4995119;28;20114;-64
2022/02/20 11:30:42;;;;;;;1.90;0.80;;;;;;;;;;4985529;28;20147;-64
2022/02/20 11:33:08;;;;;;;2.28;0.88;;;;;;;;;;4996678;28;20113;-64
2022/02/20 11:35:33;;;;;;;1.25;0.90;;;;;;;;;;4993163;28;20079;-64
2022/02/20 11:38:04;;;;;;;1.53;1.03;;;;;;;;;;4993230;28;20110;-64
2022/02/20 11:40:31;;;;;;;1.38;0.75;;;;;;;;;;5007871;28;20101;-64
2022/02/20 11:43:00;;;;;;;0.73;0.70;;;;;;;;;;5002019;28;20370;-65
2022/02/20 11:45:25;;;;;;;0.82;0.60;;;;;;;;;;5003785;28;20137;-65
2022/02/20 11:48:09;;;;;;;1.98;0.88;;;;;;;;;;4996911;28;20574;-65
2022/02/20 11:50:35;;;;;;;1.73;0.88;;;;;;;;;;4998372;28;20164;-65
2022/02/20 11:53:02;;;;;;;2.95;0.60;;;;;;;;;;4984588;28;20094;-65
2022/02/20 11:55:29;;;;;;;0.70;0.60;;;;;;;;;;5008873;28;20089;-65
2022/02/20 11:58:21;;;;;;;1.38;0.88;;;;;;;;;;4990574;28;21022;-65
2022/02/20 12:00:55;;;;;;;0.85;0.80;;;;;;;;;;4998624;28;20601;-65
2022/02/20 12:03:24;;;;;;;0.93;0.80;;;;;;;;;;5005365;28;20222;-65
2022/02/20 12:06:08;;;;;;;1.52;0.88;;;;;;;;;;4995977;28;20452;-65
2022/02/20 12:08:36;;;;;;;0.60;0.60;;;;;;;;;;4993128;28;20107;-65
2022/02/20 12:11:21;;;;;;;0.70;0.70;;;;;;;;;;4987267;28;20654;-64
2022/02/20 12:13:49;;;;;;;1.67;1.02;;;;;;;;;;4982888;28;20098;-65
2022/02/20 12:16:33;;;;;;;0.57;0.57;;;;;;;;;;4993182;28;20107;-65
2022/02/20 12:19:10;;;;;;;1.23;0.70;;;;;;;;;;4976773;28;20598;-65
2022/02/20 12:21:54;;;;;;;1.17;0.68;;;;;;;;;;4989868;28;20110;-62
2022/02/20 12:24:22;;;;;;;2.13;0.93;;;;;;;;;;4988305;28;20102;-62
2022/02/20 12:26:54;;;;;;;0.50;0.50;;;;;;;;;;4984056;28;20116;-65
2022/02/20 12:29:19;;;;;;;1.65;0.70;;;;;;;;;;4995231;28;20102;-64
2022/02/20 12:32:10;;;;;;;0.87;0.63;;;;;;;;;;4982778;28;20546;-64
2022/02/20 12:34:45;;;;;;;13.45;5.43;;;;;;;;;;4998459;28;20466;-65
2022/02/20 12:37:11;;;;;;;1.48;0.60;;;;;;;;;;5002560;28;20351;-65
2022/02/20 12:39:36;;;;;;;0.70;0.70;;;;;;;;;;4997479;28;20217;-64
2022/02/20 12:42:02;;;;;;;1.30;0.93;;;;;;;;;;4985367;28;20553;-64
2022/02/20 12:44:27;;;;;;;1.23;1.00;;;;;;;;;;4997875;28;20190;-64
2022/02/20 12:46:52;;;;;;;3.10;0.80;;;;;;;;;;4996178;28;20128;-64
2022/02/20 12:49:17;;;;;;;1.23;1.10;;;;;;;;;;4985032;28;20105;-65
2022/02/20 12:51:44;;;;;;;0.88;0.88;;;;;;;;;;4989801;28;20643;-65
2022/02/20 12:54:09;;;;;;;2.60;1.20;;;;;;;;;;4983709;28;20577;-65
2022/02/20 12:56:34;;;;;;;0.50;0.50;;;;;;;;;;4983110;28;20110;-65
2022/02/20 12:59:02;;;;;;;1.60;0.90;;;;;;;;;;4994295;28;20084;-65
2022/02/20 13:01:27;;;;;;;1.45;0.70;;;;;;;;;;4985381;28;20106;-65
2022/02/20 13:03:53;;;;;;;0.47;0.47;;;;;;;;;;4997719;28;20101;-65
2022/02/20 13:06:18;;;;;;;0.50;0.50;;;;;;;;;;4995778;28;20582;-65
2022/02/20 13:08:43;;;;;;;0.50;0.50;;;;;;;;;;4998537;28;20118;-62
2022/02/20 13:11:10;;;;;;;1.70;0.87;;;;;;;;;;4999524;28;20095;-65
2022/02/20 13:13:36;;;;;;;0.60;0.60;;;;;;;;;;5000794;28;20206;-65
2022/02/20 13:16:02;;;;;;;1.38;0.70;;;;;;;;;;5004335;28;20073;-65
2022/02/20 13:18:31;;;;;;;1.02;0.77;;;;;;;;;;4996018;28;20308;-65
2022/02/20 13:20:57;;;;;;;2.10;0.98;;;;;;;;;;4990659;28;20110;-65
2022/02/20 13:23:31;;;;;;;0.70;0.70;;;;;;;;;;5008325;28;20159;-65
2022/02/20 13:26:04;;;;;;;4.95;0.82;;;;;;;;;;4984801;28;20097;-65
2022/02/20 13:28:32;;;;;;;1.73;0.80;;;;;;;;;;4999014;28;20128;-65
2022/02/20 13:31:02;;;;;;;2.42;0.88;;;;;;;;;;4993909;28;20681;-65
2022/02/20 13:33:34;;;;;;;2.13;0.93;;;;;;;;;;4994222;28;20606;-64
2022/02/20 13:36:02;;;;;;;1.27;1.17;;;;;;;;;;4996094;28;20110;-65
2022/02/20 13:38:27;;;;;;;1.45;0.80;;;;;;;;;;4994809;28;20074;-63
2022/02/20 13:40:53;;;;;;;2.10;1.10;;;;;;;;;;4982507;28;20165;-63
2022/02/20 13:43:19;;;;;;;1.30;0.80;;;;;;;;;;4993173;28;20070;-66
2022/02/20 13:45:51;;;;;;;1.15;0.80;;;;;;;;;;4991081;28;20114;-62
2022/02/20 13:48:24;;;;;;;0.88;0.80;;;;;;;;;;4986355;28;20428;-61
2022/02/20 13:50:49;;;;;;;0.70;0.70;;;;;;;;;;4999111;28;20117;-63
2022/02/20 13:53:14;;;;;;;0.82;0.82;;;;;;;;;;4998904;28;20642;-63
2022/02/20 13:55:40;;;;;;;1.87;0.87;;;;;;;;;;4986175;28;20579;-63
2022/02/20 13:58:11;;;;;;;2.50;1.10;;;;;;;;;;4989884;28;20649;-63
2022/02/20 14:00:37;;;;;;;2.95;1.40;;;;;;;;;;4994683;28;20416;-63
2022/02/20 14:03:02;;;;;;;4.10;0.93;;;;;;;;;;4999451;28;20448;-62
2022/02/20 14:05:28;;;;;;;0.50;0.50;;;;;;;;;;4985562;28;20701;-63
2022/02/20 14:08:06;;;;;;;4.00;1.35;;;;;;;;;;4996640;28;20178;-64
2022/02/20 14:10:31;;;;;;;3.10;1.27;;;;;;;;;;4996272;28;20070;-63
2022/02/20 14:12:56;;;;;;;2.73;1.37;;;;;;;;;;4995833;28;20468;-63
2022/02/20 14:15:29;;;;;;;2.03;1.30;;;;;;;;;;4997591;28;20164;-63
2022/02/20 14:17:58;;;;;;;2.63;1.20;;;;;;;;;;4996561;28;20090;-63
2022/02/20 14:20:23;;;;;;;2.65;1.17;;;;;;;;;;4997050;28;20615;-63
2022/02/20 14:22:48;;;;;;;1.33;1.00;;;;;;;;;;4997008;28;20217;-63
2022/02/20 14:25:15;;;;;;;3.23;1.20;;;;;;;;;;4997925;28;20111;-64
2022/02/20 14:27:42;;;;;;;2.72;1.30;;;;;;;;;;4998065;28;20357;-63
2022/02/20 14:30:08;;;;;;;3.35;1.38;;;;;;;;;;4998105;28;20129;-64
2022/02/20 14:32:33;;;;;;;2.33;1.08;;;;;;;;;;4998020;28;20515;-62
2022/02/20 14:34:58;;;;;;;4.65;1.58;;;;;;;;;;4998933;28;20453;-63